Time;durP1;ratioP1;P1;durP2;ratioP2;P2;SDS_P1;SDS_P2;PMS_P1;PMS_P2;Temp;Humidity;BMP_temperature;BMP_pressure;BME280_temperature;BME280_humidity;BME280_pressure;Samples;Min_cycle;Max_cycle;Signal;HPM_P1;HPM_P2
2021/04/14 00:00:38;;;;;;;24.23;16.62;;;;;;;8.38;73.25;101318.31;1624371;83;21130;-71
2021/04/14 00:03:10;;;;;;;23.52;15.60;;;;;;;8.30;73.45;101319.94;1649814;84;21056;-71
2021/04/14 00:05:39;;;;;;;18.17;12.88;;;;;;;8.23;73.76;101319.33;1658981;83;21489;-71
2021/04/14 00:08:09;;;;;;;18.42;12.13;;;;;;;8.19;74.12;101314.28;1652504;83;21013;-71
2021/04/14 00:10:37;;;;;;;20.30;12.43;;;;;;;8.13;74.06;101307.98;1632221;83;21590;-71
2021/04/14 00:13:08;;;;;;;17.65;12.47;;;;;;;8.09;74.25;101309.42;1637797;83;21124;-69
2021/04/14 00:15:42;;;;;;;22.13;13.10;;;;;;;8.07;74.55;101311.23;1696723;79;20943;-72
2021/04/14 00:18:11;;;;;;;22.25;13.53;;;;;;;8.06;74.71;101308.67;1715428;79;21010;-71
2021/04/14 00:20:41;;;;;;;21.27;13.58;;;;;;;8.03;74.78;101312.72;1751030;80;21068;-71
2021/04/14 00:23:10;;;;;;;22.77;14.23;;;;;;;7.99;74.85;101304.59;1751760;77;21362;-71
2021/04/14 00:25:43;;;;;;;19.90;12.65;;;;;;;7.96;74.97;101310.80;1706587;80;21003;-71
2021/04/14 00:28:16;;;;;;;16.80;12.60;;;;;;;7.94;75.41;101305.20;1749359;77;21043;-71
2021/04/14 00:30:55;;;;;;;19.02;11.73;;;;;;;7.92;75.71;101302.67;1654043;81;21121;31
2021/04/14 00:33:31;;;;;;;17.90;11.70;;;;;;;7.91;76.18;101297.50;1668423;82;20911;-71
2021/04/14 00:35:59;;;;;;;19.82;13.25;;;;;;;7.91;76.35;101293.12;1719709;78;22225;-71
2021/04/14 00:38:27;;;;;;;15.90;13.48;;;;;;;7.91;75.92;101289.67;1739054;78;20975;-70
2021/04/14 00:41:01;;;;;;;23.98;16.95;;;;;;;7.86;75.68;101289.38;1759999;77;21383;-70
2021/04/14 00:43:33;;;;;;;23.05;16.73;;;;;;;7.82;75.43;101287.80;1721478;80;21023;-71
2021/04/14 00:46:02;;;;;;;28.77;19.50;;;;;;;7.76;75.38;101289.35;1710844;80;20925;-68
2021/04/14 00:48:31;;;;;;;27.25;17.75;;;;;;;7.70;75.22;101293.48;1739012;81;22824;-69
2021/04/14 00:51:04;;;;;;;26.77;17.73;;;;;;;7.63;75.07;101290.25;1733514;79;21026;-70
2021/04/14 00:53:32;;;;;;;26.62;16.82;;;;;;;7.57;75.04;101294.39;1713477;77;20880;-70
2021/04/14 00:56:00;;;;;;;23.62;14.85;;;;;;;7.50;75.17;101298.14;1744681;77;21059;-70
2021/04/14 00:58:29;;;;;;;28.65;18.60;;;;;;;7.45;75.43;101289.17;1733841;80;21019;-71
2021/04/14 01:00:57;;;;;;;25.17;18.20;;;;;;;7.42;75.52;101285.34;1715148;80;21383;-71
2021/04/14 01:03:31;;;;;;;27.93;18.27;;;;;;;7.44;75.47;101298.35;1719558;83;20994;-70
2021/04/14 01:06:00;;;;;;;19.77;14.23;;;;;;;7.40;75.08;101298.05;1727620;79;20996;-71
2021/04/14 01:08:29;;;;;;;27.95;18.05;;;;;;;7.34;75.91;101304.36;1712937;79;20998;-70
2021/04/14 01:10:57;;;;;;;27.62;19.75;;;;;;;7.30;76.86;101300.61;1714789;78;21038;-70
2021/04/14 01:13:25;;;;;;;26.65;23.18;;;;;;;7.29;77.56;101308.03;1689432;81;21749;-69
2021/04/14 01:15:53;;;;;;;38.28;31.00;;;;;;;7.30;78.13;101306.67;1675810;80;20935;-69
2021/04/14 01:18:25;;;;;;;45.35;30.92;;;;;;;7.33;78.56;101305.71;1706942;82;22698;-70
2021/04/14 01:20:54;;;;;;;35.13;22.07;;;;;;;7.39;78.93;101304.20;1715786;80;21161;-70
2021/04/14 01:23:26;;;;;;;37.05;23.70;;;;;;;7.44;79.05;101296.59;1746982;79;20963;-71
2021/04/14 01:25:55;;;;;;;43.78;21.75;;;;;;;7.48;79.03;101296.03;1705065;78;22376;-69
2021/04/14 01:28:31;;;;;;;49.53;39.38;;;;;;;7.53;78.97;101290.64;1684938;80;21367;-71
2021/04/14 01:31:32;;;;;;;42.38;31.45;;;;;;;7.53;77.70;101286.27;1650057;81;21046;-71
2021/04/14 01:33:51;;;;;;;40.30;25.32;;;;;;;7.53;76.68;101283.66;1648432;82;21140;-70
2021/04/14 01:36:19;;;;;;;37.60;21.50;;;;;;;7.48;75.95;101279.91;1704641;79;20981;-69
2021/04/14 01:38:49;;;;;;;29.52;17.77;;;;;;;7.41;75.56;101281.52;1729321;79;22227;-69
2021/04/14 01:41:17;;;;;;;32.95;19.77;;;;;;;7.33;75.42;101287.45;1711638;80;20995;-71
2021/04/14 01:43:46;;;;;;;30.30;19.62;;;;;;;7.23;75.54;101285.63;1713274;79;22003;-69
2021/04/14 01:46:16;;;;;;;28.60;17.60;;;;;;;7.18;75.91;101291.44;1704229;80;20922;-71
2021/04/14 01:48:46;;;;;;;29.80;17.40;;;;;;;7.18;76.24;101283.61;1730276;79;20962;-72
2021/04/14 01:51:16;;;;;;;24.65;15.72;;;;;;;7.20;76.27;101278.77;1724877;79;21673;-72
2021/04/14 01:53:46;;;;;;;24.95;16.27;;;;;;;7.20;76.02;101277.89;1735617;82;21018;-71
2021/04/14 01:58:37;;;;;;;21.25;14.35;;;;;;;7.20;75.96;101268.77;1717517;76;22739;31
2021/04/14 02:01:07;;;;;;;22.62;15.08;;;;;;;7.14;75.82;101264.63;1744695;82;21113;-70
2021/04/14 02:03:38;;;;;;;18.87;13.95;;;;;;;7.09;75.60;101266.53;1745536;82;21417;-70
2021/04/14 02:06:11;;;;;;;21.30;14.83;;;;;;;6.99;75.63;101264.70;1708250;80;21540;-71
2021/04/14 02:08:40;;;;;;;23.70;16.50;;;;;;;6.91;76.04;101271.93;1701696;79;21224;-71
2021/04/14 02:11:10;;;;;;;28.95;19.25;;;;;;;6.87;76.45;101261.66;1725995;78;20930;-70
2021/04/14 02:13:40;;;;;;;29.90;19.73;;;;;;;6.86;76.65;101254.30;1715121;80;21034;-70
2021/04/14 02:16:20;;;;;;;39.45;21.52;;;;;;;6.88;76.79;101251.19;1721241;80;21508;-70
2021/04/14 02:18:52;;;;;;;28.12;18.70;;;;;;;6.89;76.79;101245.52;1716209;79;21544;-72
2021/04/14 02:21:21;;;;;;;25.95;17.87;;;;;;;6.90;76.89;101240.72;1756718;79;21089;-70
2021/04/14 02:23:49;;;;;;;25.80;17.55;;;;;;;6.86;76.82;101236.05;1741228;78;21006;-70
2021/04/14 02:26:20;;;;;;;26.42;18.50;;;;;;;6.86;76.64;101230.84;1743528;78;21113;-71
2021/04/14 02:28:48;;;;;;;40.85;27.35;;;;;;;6.84;76.51;101226.13;1703425;79;21380;-69
2021/04/14 02:31:30;;;;;;;34.90;19.77;;;;;;;6.81;76.57;101224.48;1734860;79;21057;-69
2021/04/14 02:34:11;;;;;;;30.65;18.48;;;;;;;6.82;76.39;101220.95;1743186;79;20970;31
2021/04/14 02:36:40;;;;;;;27.60;18.48;;;;;;;6.76;76.12;101225.10;1728517;78;20958;-70
2021/04/14 02:39:11;;;;;;;28.98;19.92;;;;;;;6.72;75.99;101220.05;1698670;79;21022;-72
2021/04/14 02:41:39;;;;;;;32.35;21.52;;;;;;;6.67;76.05;101218.91;1740996;78;22152;-69
2021/04/14 02:44:08;;;;;;;31.75;21.33;;;;;;;6.62;76.58;101212.98;1745390;78;21203;-69
2021/04/14 02:46:37;;;;;;;34.30;23.98;;;;;;;6.55;76.96;101218.84;1709127;77;20904;-71
2021/04/14 02:49:05;;;;;;;38.50;23.18;;;;;;;6.48;77.43;101227.78;1731694;77;21030;-69
2021/04/14 02:51:36;;;;;;;39.83;26.90;;;;;;;6.42;77.86;101214.52;1701946;78;21010;-69
2021/04/14 02:54:04;;;;;;;43.13;30.68;;;;;;;6.43;78.23;101227.09;1744946;79;22356;-71
2021/04/14 02:56:32;;;;;;;45.17;28.67;;;;;;;6.43;78.49;101234.45;1707348;78;21303;-69
2021/04/14 02:59:01;;;;;;;41.28;29.23;;;;;;;6.46;78.94;101233.48;1720079;79;21054;-69
2021/04/14 03:01:30;;;;;;;29.15;19.48;;;;;;;6.53;79.25;101234.14;1698018;78;21040;-70
2021/04/14 03:03:58;;;;;;;27.80;16.87;;;;;;;6.58;79.21;101239.61;1662458;86;21035;-70
2021/04/14 03:06:27;;;;;;;24.40;17.73;;;;;;;6.59;78.89;101234.78;1730305;79;21424;-71
2021/04/14 03:08:55;;;;;;;25.90;18.70;;;;;;;6.60;78.26;101240.41;1710364;79;21477;-70
2021/04/14 03:11:24;;;;;;;32.63;20.52;;;;;;;6.64;77.89;101241.14;1725515;79;21311;-69
2021/04/14 03:13:53;;;;;;;32.17;20.77;;;;;;;6.69;77.51;101242.29;1722053;80;21046;-69
2021/04/14 03:16:24;;;;;;;34.55;21.50;;;;;;;6.67;77.06;101251.91;1739066;78;21033;-69
2021/04/14 03:18:53;;;;;;;31.05;21.05;;;;;;;6.61;77.03;101254.28;1741443;80;21759;-72
2021/04/14 03:21:29;;;;;;;32.15;22.73;;;;;;;6.62;77.23;101258.13;1735645;80;21152;-72
2021/04/14 03:24:02;;;;;;;41.42;24.45;;;;;;;6.66;77.88;101260.65;1681767;81;20985;-69
2021/04/14 03:26:50;;;;;;;46.98;27.07;;;;;;;6.69;78.23;101259.23;1667616;81;20967;-72
2021/04/14 03:29:25;;;;;;;47.85;24.72;;;;;;;6.75;79.17;101260.33;1740620;78;20939;31
2021/04/14 03:32:08;;;;;;;63.20;32.90;;;;;;;6.82;79.48;101261.36;1629878;86;21377;-75
2021/04/14 03:34:51;;;;;;;64.40;32.78;;;;;;;6.93;79.52;101260.16;1601853;89;21002;-69
2021/04/14 03:37:20;;;;;;;69.62;35.40;;;;;;;7.05;79.66;101264.96;1648422;83;21062;-72
2021/04/14 03:39:48;;;;;;;40.05;24.07;;;;;;;7.15;79.79;101253.74;1624395;85;21490;-69
2021/04/14 03:42:16;;;;;;;52.48;28.92;;;;;;;7.23;79.13;101257.78;1602678;85;21654;-69
2021/04/14 03:44:54;;;;;;;42.35;23.85;;;;;;;7.32;79.07;101250.54;1613706;84;22071;31
2021/04/14 03:47:21;;;;;;;40.70;20.95;;;;;;;7.39;78.88;101250.70;1622011;85;21043;-70
2021/04/14 03:49:53;;;;;;;38.48;22.62;;;;;;;7.46;78.46;101246.95;1623367;82;21397;-69
2021/04/14 03:52:21;;;;;;;44.30;25.17;;;;;;;7.57;78.11;101252.62;1738575;79;21116;-70
2021/04/14 03:54:49;;;;;;;32.25;23.27;;;;;;;7.65;77.70;101253.66;1701067;80;21132;-71
2021/04/14 03:57:18;;;;;;;34.43;21.42;;;;;;;7.71;77.43;101254.72;1658686;85;21398;-70
2021/04/14 03:59:46;;;;;;;41.23;25.43;;;;;;;7.77;77.17;101247.96;1715816;80;20926;-70
2021/04/14 04:02:14;;;;;;;46.53;28.57;;;;;;;7.82;76.99;101257.77;1738495;81;20912;-71
2021/04/14 04:04:43;;;;;;;51.90;29.57;;;;;;;7.87;76.90;101257.62;1738582;82;21365;-70
2021/04/14 04:07:11;;;;;;;45.30;26.97;;;;;;;7.91;76.81;101253.95;1738645;82;21034;-71
2021/04/14 04:09:41;;;;;;;57.78;27.60;;;;;;;7.95;76.78;101252.92;1738587;82;21030;-70
2021/04/14 04:12:10;;;;;;;42.98;25.52;;;;;;;8.01;76.68;101249.23;1742405;79;21121;-69
2021/04/14 04:14:47;;;;;;;41.00;26.17;;;;;;;8.08;76.62;101248.92;1708339;80;21587;-69
2021/04/14 04:17:36;;;;;;;46.37;26.95;;;;;;;8.16;76.49;101250.37;1706206;83;20920;-70
2021/04/14 04:20:09;;;;;;;47.08;29.65;;;;;;;8.24;76.31;101248.31;1753101;79;20891;-71
2021/04/14 04:22:38;;;;;;;50.55;28.95;;;;;;;8.29;76.21;101244.63;1735505;77;21393;-73
2021/04/14 04:25:07;;;;;;;42.43;25.92;;;;;;;8.34;75.95;101240.52;1659847;84;20965;-73
2021/04/14 04:27:37;;;;;;;44.65;28.20;;;;;;;8.41;75.88;101241.14;1701124;81;20899;-71
2021/04/14 04:30:08;;;;;;;47.83;26.25;;;;;;;8.48;75.84;101239.51;1772842;80;20937;-70
2021/04/14 04:32:36;;;;;;;52.27;29.80;;;;;;;8.60;75.73;101234.68;1768973;81;21129;-70
2021/04/14 04:35:05;;;;;;;48.83;29.40;;;;;;;8.74;75.57;101238.02;1712912;80;21357;-72
2021/04/14 04:37:34;;;;;;;47.67;27.85;;;;;;;8.87;75.41;101241.38;1659975;80;20981;-73
2021/04/14 04:40:15;;;;;;;47.35;28.67;;;;;;;9.02;75.22;101233.77;1659562;81;20936;-70
2021/04/14 04:42:45;;;;;;;46.33;25.48;;;;;;;9.14;75.04;101226.70;1619908;82;21051;-71
2021/04/14 04:45:15;;;;;;;42.98;25.37;;;;;;;9.28;74.79;101227.39;1614572;88;21711;-73
2021/04/14 04:47:58;;;;;;;;;;;;;;;;;;;;;
2021/04/14 04:50:31;;;;;;;54.15;30.32;;;;;;;9.52;74.41;101224.97;1633574;86;21022;-71
2021/04/14 04:53:04;;;;;;;54.18;30.25;;;;;;;9.66;74.54;101220.86;1633472;82;21054;-72
2021/04/14 04:55:33;;;;;;;50.65;31.57;;;;;;;9.78;74.38;101218.96;1637229;82;21082;-74
2021/04/14 04:58:03;;;;;;;60.45;31.82;;;;;;;9.92;74.07;101219.17;1659314;83;20979;-77
2021/04/14 05:00:32;;;;;;;45.43;30.15;;;;;;;10.05;73.76;101216.83;1642833;83;21322;-72
2021/04/14 05:03:03;;;;;;;50.38;27.58;;;;;;;10.16;73.48;101217.16;1668491;82;21078;-75
2021/04/14 05:05:32;;;;;;;48.00;25.75;;;;;;;10.27;73.29;101211.39;1620376;83;21075;-71
2021/04/14 05:08:00;;;;;;;43.17;25.05;;;;;;;10.34;73.27;101210.19;1615964;84;21111;-75
2021/04/14 05:10:31;;;;;;;44.88;24.50;;;;;;;10.46;73.12;101207.41;1659495;83;21070;-75
2021/04/14 05:12:59;;;;;;;35.10;18.57;;;;;;;10.57;72.96;101208.19;1630373;83;21226;-78
2021/04/14 05:15:35;;;;;;;39.88;19.85;;;;;;;10.65;71.96;101205.16;1654059;82;20991;-75
2021/04/14 05:18:02;;;;;;;37.08;22.58;;;;;;;10.78;71.56;101200.98;1644492;84;22040;-78
2021/04/14 05:20:30;;;;;;;43.80;22.60;;;;;;;10.96;70.85;101207.92;1693087;80;20888;-75
2021/04/14 05:22:59;;;;;;;33.67;22.82;;;;;;;11.09;70.48;101204.16;1684242;81;20964;-75
2021/04/14 05:25:32;;;;;;;29.07;21.02;;;;;;;11.19;70.02;101204.08;1683486;79;21206;-76
2021/04/14 05:28:08;;;;;;;36.25;21.65;;;;;;;11.25;69.84;101205.54;1688613;79;20932;-76
2021/04/14 05:30:35;;;;;;;26.35;19.87;;;;;;;11.29;69.64;101207.52;1704418;81;21639;-77
2021/04/14 05:33:05;;;;;;;42.55;19.37;;;;;;;11.33;69.69;101214.30;1720943;80;20934;-75
2021/04/14 05:35:34;;;;;;;35.33;18.52;;;;;;;11.35;69.49;101210.66;1696076;78;20899;-75
2021/04/14 05:38:04;;;;;;;33.98;21.12;;;;;;;11.37;69.39;101213.22;1723774;80;22192;-76
2021/04/14 05:40:33;;;;;;;57.13;22.20;;;;;;;11.39;69.41;101211.36;1713288;78;21038;-77
2021/04/14 05:43:16;;;;;;;30.40;19.42;;;;;;;11.40;69.17;101215.22;1680298;80;21043;-74
2021/04/14 05:45:45;;;;;;;29.63;19.15;;;;;;;11.40;68.72;101211.28;1718971;80;21061;-74
2021/04/14 05:48:14;;;;;;;26.85;18.17;;;;;;;11.40;68.79;101209.09;1721066;79;21063;-77
2021/04/14 05:51:05;;;;;;;33.55;19.67;;;;;;;11.42;68.83;101209.87;1717264;80;22243;-77
2021/04/14 05:53:34;;;;;;;37.08;23.40;;;;;;;11.41;68.35;101193.74;1731992;79;21381;-78
2021/04/14 05:56:05;;;;;;;33.08;19.95;;;;;;;11.38;68.49;101192.58;1722796;80;21017;-74
2021/04/14 05:58:36;;;;;;;37.58;20.17;;;;;;;11.46;68.66;101198.27;1716231;79;20975;-77
2021/04/14 06:01:05;;;;;;;38.10;19.07;;;;;;;11.61;68.39;101197.91;1693960;80;21084;-76
2021/04/14 06:03:36;;;;;;;41.05;21.40;;;;;;;11.75;67.91;101193.19;1716324;79;21371;31
2021/04/14 06:06:05;;;;;;;42.53;22.60;;;;;;;11.90;67.44;101196.31;1700227;80;20959;-76
2021/04/14 06:08:34;;;;;;;37.40;21.45;;;;;;;12.01;67.04;101190.45;1670840;81;20960;-77
2021/04/14 06:11:03;;;;;;;38.55;22.75;;;;;;;12.08;66.67;101183.91;1735198;80;20926;-75
2021/04/14 06:13:32;;;;;;;46.75;24.43;;;;;;;12.18;66.37;101185.08;1683353;81;21038;-77
2021/04/14 06:16:00;;;;;;;43.17;26.40;;;;;;;12.31;66.12;101193.08;1697907;78;21363;-78
2021/04/14 06:18:29;;;;;;;46.13;23.65;;;;;;;12.46;65.47;101186.56;1730246;79;20963;-76
2021/04/14 06:20:59;;;;;;;43.30;25.05;;;;;;;12.65;65.22;101188.02;1728349;80;21003;-73
2021/04/14 06:23:29;;;;;;;47.55;28.83;;;;;;;12.83;64.82;101186.55;1751181;80;20943;-76
2021/04/14 06:26:15;;;;;;;45.50;26.62;;;;;;;12.96;64.36;101186.17;1724952;78;20948;-76
2021/04/14 06:28:33;;;;;;;43.68;27.87;;;;;;;13.09;63.65;101181.45;1670089;79;22177;31
2021/04/14 06:31:01;;;;;;;45.67;27.27;;;;;;;13.19;63.61;101183.44;1683180;82;21394;-74
2021/04/14 06:33:32;;;;;;;51.18;28.65;;;;;;;13.33;62.94;101181.77;1714368;81;20991;-74
2021/04/14 06:36:00;;;;;;;39.78;25.62;;;;;;;13.45;62.90;101178.34;1674702;80;21140;-75
2021/04/14 06:38:31;;;;;;;38.55;24.82;;;;;;;13.57;62.42;101175.42;1733445;82;20924;-75
2021/04/14 06:44:50;;;;;;;51.65;25.82;;;;;;;13.71;61.56;101173.22;1666546;81;20967;-75
2021/04/14 06:47:51;;;;;;;44.23;24.87;;;;;;;13.81;60.68;101172.53;1689714;81;20919;-75
2021/04/14 06:50:49;;;;;;;37.73;25.68;;;;;;;13.83;59.93;101172.44;1719559;80;21437;-74
2021/04/14 06:53:26;;;;;;;44.42;26.15;;;;;;;13.85;60.32;101163.92;1666264;80;20940;-76
2021/04/14 06:56:05;;;;;;;45.33;27.27;;;;;;;13.96;59.45;101156.19;1719223;80;22119;-75
2021/04/14 06:58:40;;;;;;;43.60;25.60;;;;;;;13.96;59.45;101156.19;1685522;80;21748;-76
2021/04/14 07:01:14;;;;;;;45.10;24.70;;;;;;;14.07;59.26;101160.28;1747327;77;20978;-77
2021/04/14 07:04:17;;;;;;;53.05;24.18;;;;;;;14.14;59.00;101157.22;1701032;80;21057;-74
2021/04/14 07:06:47;;;;;;;36.13;24.10;;;;;;;14.17;58.84;101159.67;1730024;78;20944;-77
2021/04/14 07:09:35;;;;;;;48.85;23.15;;;;;;;14.18;57.75;101159.55;1712048;79;21349;-74
2021/04/14 07:12:11;;;;;;;35.30;21.75;;;;;;;14.13;57.70;101154.22;1683234;80;21615;-77
2021/04/14 07:14:58;;;;;;;32.60;20.12;;;;;;;14.05;57.69;101152.94;1730304;78;21073;-74
2021/04/14 07:20:59;;;;;;;37.42;19.55;;;;;;;13.99;57.64;101151.19;1727687;79;21453;-77
2021/04/14 07:23:47;;;;;;;28.20;17.25;;;;;;;13.94;57.47;101145.34;1681520;80;21284;-75
2021/04/14 07:26:42;;;;;;;37.85;19.32;;;;;;;13.89;57.60;101141.70;1578790;88;21704;-75
2021/04/14 07:29:37;;;;;;;33.30;18.17;;;;;;;13.95;57.52;101142.62;1788839;74;23470;-75
2021/04/14 07:32:28;;;;;;;;;;;;;;;;;;;;;
2021/04/14 07:35:36;;;;;;;29.50;17.87;;;;;;;13.85;56.15;101145.47;1796287;76;21432;31
2021/04/14 07:38:35;;;;;;;26.20;15.05;;;;;;;13.85;55.98;101138.87;1786520;75;21053;-75
2021/04/14 07:41:44;;;;;;;25.02;14.03;;;;;;;13.79;55.61;101119.05;1715761;79;21077;-73
2021/04/14 07:44:24;;;;;;;31.12;15.88;;;;;;;13.99;55.01;101143.27;1693632;80;20948;-75
2021/04/14 07:47:00;;;;;;;18.55;15.00;;;;;;;14.06;55.07;101128.73;1790317;75;28003;-75
2021/04/14 07:49:33;;;;;;;19.98;13.98;;;;;;;14.15;54.32;101132.55;1730968;80;21121;-75
2021/04/14 07:52:04;;;;;;;22.90;13.83;;;;;;;14.26;52.81;101137.47;1705816;79;21319;-78
2021/04/14 07:54:46;;;;;;;19.05;13.32;;;;;;;14.29;53.54;101126.72;1715053;79;21173;-80
2021/04/14 07:57:38;;;;;;;21.42;12.23;;;;;;;14.29;53.54;101126.72;1749752;78;21149;31
2021/04/14 08:00:20;;;;;;;17.30;12.23;;;;;;;14.32;52.51;101130.95;1717802;77;21059;-69
2021/04/14 08:03:18;;;;;;;18.75;13.08;;;;;;;14.26;52.26;101135.31;1753636;76;20916;-75
2021/04/14 08:06:27;;;;;;;20.72;12.60;;;;;;;14.21;52.22;101122.91;1810633;74;23385;-74
2021/04/14 08:09:24;;;;;;;24.37;14.58;;;;;;;14.13;52.27;101123.89;1692017;81;21150;-74
2021/04/14 08:12:07;;;;;;;23.62;13.58;;;;;;;14.13;52.81;101127.36;1719307;77;21020;-74
2021/04/14 08:14:39;;;;;;;16.15;11.78;;;;;;;14.15;52.80;101129.42;1724033;81;21020;-70
2021/04/14 08:17:24;;;;;;;17.15;12.78;;;;;;;14.10;52.24;101123.62;1733143;80;20993;-71
2021/04/14 08:20:13;;;;;;;33.28;15.98;;;;;;;14.06;52.25;101123.45;1712576;81;21577;-70
2021/04/14 08:22:44;;;;;;;25.20;15.88;;;;;;;14.01;52.19;101111.05;1707670;81;20985;-73
2021/04/14 08:25:14;;;;;;;20.50;14.68;;;;;;;13.97;51.97;101112.20;1685274;80;21824;-68
2021/04/14 08:27:54;;;;;;;23.47;15.68;;;;;;;13.92;52.04;101108.55;1747239;80;20947;-73
2021/04/14 08:30:36;;;;;;;29.48;16.05;;;;;;;13.91;52.30;101113.44;1770718;76;22847;-73
2021/04/14 08:33:30;;;;;;;20.23;14.25;;;;;;;13.84;52.81;101105.56;1694550;81;21117;-73
2021/04/14 08:36:26;;;;;;;18.57;14.35;;;;;;;13.81;52.68;101105.30;1699046;80;21207;-74
2021/04/14 08:39:02;;;;;;;27.90;17.37;;;;;;;13.82;52.85;101106.98;1736182;79;22568;-74
2021/04/14 08:41:33;;;;;;;25.80;16.05;;;;;;;13.82;52.57;101099.55;1715525;81;21070;-72
2021/04/14 08:44:18;;;;;;;22.90;15.63;;;;;;;13.79;52.46;101101.92;1725229;80;21810;-74
2021/04/14 08:46:52;;;;;;;23.05;15.58;;;;;;;13.79;53.09;101093.17;1773407;79;20931;-73
2021/04/14 08:49:25;;;;;;;24.05;16.25;;;;;;;13.75;52.32;101098.27;1707887;79;21198;-73
2021/04/14 08:51:54;;;;;;;24.77;15.00;;;;;;;13.65;52.43;101097.56;1720583;83;21443;-72
2021/04/14 08:54:31;;;;;;;26.20;14.68;;;;;;;13.59;52.47;101096.63;1734652;82;20970;-75
2021/04/14 08:57:00;;;;;;;20.02;14.55;;;;;;;13.52;52.45;101097.98;1721040;83;21074;-74
2021/04/14 08:59:33;;;;;;;19.07;14.23;;;;;;;13.45;52.92;101090.95;1735268;82;20951;-73
2021/04/14 09:02:09;;;;;;;22.10;15.20;;;;;;;13.42;52.82;101091.13;1693676;83;21515;-73
2021/04/14 09:04:47;;;;;;;20.40;15.95;;;;;;;13.39;53.10;101091.34;1715722;80;21074;-74
2021/04/14 09:07:23;;;;;;;21.37;14.53;;;;;;;13.39;53.44;101091.81;1634379;84;21030;-73
2021/04/14 09:09:54;;;;;;;23.02;15.75;;;;;;;13.35;53.05;101091.16;1663315;82;21256;-74
2021/04/14 09:12:43;;;;;;;19.45;14.35;;;;;;;13.33;52.93;101081.66;1724616;78;21545;-74
2021/04/14 09:15:29;;;;;;;;;;;;;;;13.27;52.99;101086.80;1666382;81;21347;-74
2021/04/14 09:18:06;;;;;;;18.07;12.95;;;;;;;13.22;53.33;101082.31;1757272;78;20148;31
2021/04/14 09:20:38;;;;;;;19.90;13.58;;;;;;;13.17;53.62;101076.02;1735707;80;21006;-73
2021/04/14 09:23:13;;;;;;;17.07;12.10;;;;;;;13.19;54.01;101074.62;1737502;82;20919;-72
2021/04/14 09:25:56;;;;;;;17.32;11.90;;;;;;;13.24;54.32;101080.42;1727900;79;21026;-74
2021/04/14 09:28:39;;;;;;;15.90;10.40;;;;;;;13.29;54.29;101077.05;1720952;80;21203;-73
2021/04/14 09:31:18;;;;;;;23.70;12.47;;;;;;;13.34;54.25;101072.80;1694411;81;21050;-73
2021/04/14 09:33:50;;;;;;;16.32;12.03;;;;;;;13.34;54.07;101076.75;1695609;84;21501;-72
2021/04/14 09:36:32;;;;;;;19.98;11.38;;;;;;;13.29;54.01;101069.15;1696753;83;21011;-73
2021/04/14 09:39:42;;;;;;;23.95;11.85;;;;;;;13.25;54.18;101072.88;1717473;80;20935;-73
2021/04/14 09:42:49;;;;;;;22.02;13.90;;;;;;;13.22;54.44;101062.56;1729975;78;21809;-72
2021/04/14 09:45:33;;;;;;;17.67;12.47;;;;;;;13.19;55.12;101064.08;1700344;79;21465;-74
2021/04/14 09:48:14;;;;;;;18.35;12.10;;;;;;;13.18;55.71;101061.90;1677587;81;21089;-74
2021/04/14 09:50:45;;;;;;;17.87;12.85;;;;;;;13.23;55.78;101063.79;1698423;79;20966;-77
2021/04/14 09:53:30;;;;;;;20.32;12.85;;;;;;;13.31;56.01;101051.94;1724506;78;20984;-75
2021/04/14 09:56:15;;;;;;;15.98;12.80;;;;;;;13.37;56.45;101054.19;1702674;79;21237;-75
2021/04/14 09:59:15;;;;;;;15.85;12.03;;;;;;;13.42;57.00;101052.09;1717416;78;21130;-77
2021/04/14 10:01:48;;;;;;;17.07;12.05;;;;;;;13.50;56.25;101043.70;1694175;78;20931;-77
2021/04/14 10:04:25;;;;;;;21.25;14.28;;;;;;;13.57;55.82;101050.25;1695295;80;20972;-75
2021/04/14 10:07:06;;;;;;;21.80;14.93;;;;;;;13.63;55.11;101052.48;1692157;78;21384;-75
2021/04/14 10:12:28;;;;;;;21.80;14.87;;;;;;;13.59;54.54;101043.09;1700034;80;21066;-76
2021/04/14 10:15:00;;;;;;;24.95;14.68;;;;;;;13.55;55.17;101045.55;1665932;81;21188;-75
2021/04/14 10:17:30;;;;;;;25.43;16.42;;;;;;;13.51;55.14;101047.53;1704626;78;20932;-76
2021/04/14 10:20:36;;;;;;;25.02;16.97;;;;;;;13.52;55.65;101049.69;1714406;79;21133;-76
2021/04/14 10:23:11;;;;;;;19.57;15.58;;;;;;;13.55;55.52;101045.07;1732275;82;21129;-75
2021/04/14 10:25:42;;;;;;;19.65;15.03;;;;;;;13.64;55.45;101042.30;1717325;78;20998;-75
2021/04/14 10:28:20;;;;;;;21.77;14.85;;;;;;;13.68;55.87;101047.27;1693294;84;20955;-73
2021/04/14 10:31:12;;;;;;;24.18;16.12;;;;;;;13.71;54.87;101042.27;1711984;80;21034;-74
2021/04/14 10:33:42;;;;;;;20.27;14.87;;;;;;;13.74;54.76;101038.13;1657150;81;21027;-74
2021/04/14 10:36:21;;;;;;;22.65;15.10;;;;;;;13.74;55.04;101040.77;1725996;80;21152;-71
2021/04/14 10:38:53;;;;;;;25.85;15.72;;;;;;;13.73;55.42;101037.73;1691866;79;21373;-74
2021/04/14 10:41:24;;;;;;;21.02;15.93;;;;;;;13.74;56.02;101043.84;1723677;80;21036;-75
2021/04/14 10:43:54;;;;;;;28.00;19.92;;;;;;;13.66;57.73;101045.20;1695493;80;20943;-74
2021/04/14 10:46:35;;;;;;;29.37;18.48;;;;;;;13.55;58.52;101037.64;1693484;80;20951;-75
2021/04/14 10:49:07;;;;;;;38.55;22.73;;;;;;;13.49;59.26;101042.83;1716572;81;21383;-72
2021/04/14 10:51:46;;;;;;;44.58;26.97;;;;;;;13.44;59.72;101046.25;1692186;78;21169;-76
2021/04/14 10:54:34;;;;;;;52.62;29.57;;;;;;;13.37;60.31;101043.17;1706859;80;20961;-74
2021/04/14 10:57:04;;;;;;;58.87;35.03;;;;;;;13.31;60.73;101050.63;1740273;77;20953;-75
2021/04/14 10:59:33;;;;;;;61.77;34.00;;;;;;;13.24;61.21;101051.45;1677477;79;21042;-79
2021/04/14 11:02:14;;;;;;;47.73;27.45;;;;;;;13.17;61.08;101043.10;1688920;79;22148;-77
2021/04/14 11:04:43;;;;;;;35.10;20.20;;;;;;;13.17;61.30;101043.58;1713039;80;21007;-77
2021/04/14 11:07:22;;;;;;;37.15;20.92;;;;;;;13.17;62.70;101047.05;1697200;81;21555;-81
2021/04/14 11:09:57;;;;;;;30.88;17.02;;;;;;;13.26;62.82;101037.72;1678267;81;20943;-74
2021/04/14 11:12:27;;;;;;;28.57;18.42;;;;;;;13.36;62.78;101036.22;1672302;82;21066;-76
2021/04/14 11:15:15;;;;;;;45.03;26.55;;;;;;;13.42;62.60;101035.80;1699399;80;21038;-76
2021/04/14 11:17:48;;;;;;;38.00;26.50;;;;;;;13.45;62.00;101029.03;1727083;80;20967;-77
2021/04/14 11:20:23;;;;;;;27.75;20.68;;;;;;;13.43;62.65;101026.97;1701603;80;20966;-83
2021/04/14 11:23:02;;;;;;;27.27;21.75;;;;;;;13.42;62.52;101030.53;1676372;80;21254;-81
2021/04/14 11:25:33;;;;;;;24.75;19.55;;;;;;;13.45;62.55;101022.89;1690596;78;20931;-78
2021/04/14 11:28:13;;;;;;;31.15;21.15;;;;;;;13.50;62.42;101023.94;1731101;80;21140;-84
2021/04/14 11:31:11;;;;;;;32.30;21.02;;;;;;;13.55;62.44;101025.31;1727109;78;21035;-76
2021/04/14 11:33:44;;;;;;;29.42;20.72;;;;;;;13.61;62.90;101022.27;1670433;80;20943;-75
2021/04/14 11:36:21;;;;;;;31.40;21.35;;;;;;;13.71;62.96;101026.45;1700497;84;21848;-74
2021/04/14 11:39:29;;;;;;;31.35;22.98;;;;;;;13.70;62.14;101019.50;1715027;79;21011;-77
2021/04/14 11:45:00;;;;;;;28.45;22.85;;;;;;;13.72;62.19;101016.74;1666477;80;21412;-77
2021/04/14 11:47:37;;;;;;;31.65;22.07;;;;;;;13.75;62.46;101012.12;1704323;81;21384;-79
2021/04/14 11:50:17;;;;;;;33.55;22.52;;;;;;;13.79;62.35;101007.02;1658604;81;21004;-80
2021/04/14 11:52:54;;;;;;;33.35;24.25;;;;;;;13.88;62.38;101010.83;1664822;80;20979;-77
2021/04/14 11:55:37;;;;;;;25.65;19.37;;;;;;;13.89;62.38;101002.83;1705668;78;22193;-76
2021/04/14 11:58:25;;;;;;;27.95;20.57;;;;;;;13.89;62.67;101004.14;1696275;79;21043;-71
2021/04/14 12:00:55;;;;;;;41.65;22.55;;;;;;;13.89;63.13;101002.83;1697208;80;20982;-83
2021/04/14 12:03:40;;;;;;;41.20;24.80;;;;;;;13.93;62.68;100992.89;1678024;80;21026;-81
2021/04/14 12:06:10;;;;;;;29.12;18.95;;;;;;;13.89;62.24;101000.19;1669703;79;21138;-87
2021/04/14 12:08:40;;;;;;;21.17;15.53;;;;;;;13.82;62.67;101002.84;1686051;80;21472;-80